Time;durP1;ratioP1;P1;durP2;ratioP2;P2;SDS_P1;SDS_P2;PMS_P1;PMS_P2;Temp;Humidity;BMP_temperature;BMP_pressure;BME280_temperature;BME280_humidity;BME280_pressure;Samples;Min_cycle;Max_cycle;Signal;HPM_P1;HPM_P2
2022/01/05 00:00:10;;;;;;;10.52;3.08;;;4.40;99.90;;;;;;5060995;28;20493;-49
2022/01/05 00:02:36;;;;;;;13.80;3.05;;;4.40;99.90;;;;;;5059200;28;20025;-43
2022/01/05 00:05:03;;;;;;;12.18;3.88;;;4.40;99.90;;;;;;5059784;28;20020;-43
2022/01/05 00:07:29;;;;;;;14.43;3.03;;;4.40;99.90;;;;;;5059989;28;20066;-45
2022/01/05 00:09:54;;;;;;;15.30;3.33;;;4.40;99.90;;;;;;5059280;28;20135;-46
2022/01/05 00:12:20;;;;;;;17.00;3.72;;;4.40;99.90;;;;;;5061280;28;20028;-46
2022/01/05 00:14:45;;;;;;;10.40;3.05;;;4.30;99.90;;;;;;5060055;28;20029;-45
2022/01/05 00:17:11;;;;;;;22.60;2.95;;;4.30;99.90;;;;;;5059295;28;20031;-46
2022/01/05 00:19:36;;;;;;;9.32;2.72;;;4.30;99.90;;;;;;5070473;28;20028;-47
2022/01/05 00:22:04;;;;;;;11.38;2.97;;;4.40;99.90;;;;;;5063950;28;20037;-47
2022/01/05 00:24:29;;;;;;;21.88;3.70;;;4.30;99.90;;;;;;5069379;28;20048;-45
2022/01/05 00:26:55;;;;;;;14.05;2.70;;;4.30;99.90;;;;;;5064367;28;20072;-45
2022/01/05 00:29:20;;;;;;;11.00;2.60;;;4.30;99.90;;;;;;5058550;28;20434;-45
2022/01/05 00:31:46;;;;;;;9.23;2.97;;;4.30;99.90;;;;;;5061710;28;20032;-44
2022/01/05 00:34:12;;;;;;;11.55;3.60;;;4.30;99.90;;;;;;5059368;28;20350;-45
2022/01/05 00:36:38;;;;;;;13.68;3.92;;;4.30;99.90;;;;;;5060888;28;20019;-45
2022/01/05 00:39:04;;;;;;;13.40;3.10;;;4.30;99.90;;;;;;5053422;28;20037;-45
2022/01/05 00:41:29;;;;;;;12.43;2.67;;;4.30;99.90;;;;;;5050201;28;20025;-45
2022/01/05 00:43:55;;;;;;;11.77;2.83;;;4.40;99.90;;;;;;5050436;28;20021;-46
2022/01/05 00:46:20;;;;;;;13.70;3.47;;;4.40;99.90;;;;;;5050222;28;20029;-45
2022/01/05 00:48:46;;;;;;;13.00;3.05;;;4.30;99.90;;;;;;5049500;28;20036;-45
2022/01/05 00:51:12;;;;;;;15.55;3.33;;;4.30;99.90;;;;;;5050180;28;20471;-45
2022/01/05 00:53:38;;;;;;;20.88;4.90;;;4.30;99.90;;;;;;5063048;28;20032;-44
2022/01/05 00:56:04;;;;;;;21.40;3.85;;;4.30;99.90;;;;;;5081554;28;20024;-45
2022/01/05 00:58:29;;;;;;;21.95;3.45;;;4.30;99.90;;;;;;5089475;28;20055;-45
2022/01/05 01:00:56;;;;;;;19.08;3.17;;;4.30;99.90;;;;;;5090068;28;20055;-44
2022/01/05 01:03:22;;;;;;;10.30;2.80;;;4.40;99.90;;;;;;5082715;28;20016;-44
2022/01/05 01:05:47;;;;;;;12.10;2.80;;;4.30;99.90;;;;;;5085389;28;20042;-46
2022/01/05 01:08:13;;;;;;;11.13;2.88;;;4.40;99.90;;;;;;5089218;28;20024;-47
2022/01/05 01:10:39;;;;;;;15.90;2.88;;;4.30;99.90;;;;;;5089854;28;20032;-46
2022/01/05 01:13:04;;;;;;;12.27;2.50;;;4.30;99.90;;;;;;5089943;28;20115;-46
2022/01/05 01:15:30;;;;;;;13.10;2.60;;;4.40;99.90;;;;;;5089351;28;20565;-46
2022/01/05 01:17:55;;;;;;;12.65;2.90;;;4.40;99.90;;;;;;5079267;28;20024;-44
2022/01/05 01:20:21;;;;;;;11.88;2.78;;;4.40;99.90;;;;;;5081494;28;20020;-48
2022/01/05 01:22:48;;;;;;;12.75;2.92;;;4.40;99.90;;;;;;5089837;28;20592;-46
2022/01/05 01:25:14;;;;;;;15.48;2.20;;;4.40;99.90;;;;;;5089498;28;20032;-46
2022/01/05 01:27:42;;;;;;;16.90;3.90;;;4.40;99.90;;;;;;5088934;28;20416;-46
2022/01/05 01:30:09;;;;;;;9.18;3.33;;;4.40;99.90;;;;;;5078757;28;20020;-46
2022/01/05 01:32:35;;;;;;;8.10;2.83;;;4.30;99.90;;;;;;5082807;28;20111;-45
2022/01/05 01:35:02;;;;;;;9.98;2.58;;;4.30;99.90;;;;;;5088203;28;20115;-45
2022/01/05 01:37:27;;;;;;;8.75;2.22;;;4.30;99.90;;;;;;5089155;28;20024;-46
2022/01/05 01:39:52;;;;;;;8.85;2.03;;;4.30;99.90;;;;;;5089316;28;20016;-49
2022/01/05 01:42:18;;;;;;;10.77;3.00;;;4.30;99.90;;;;;;5089338;28;20390;-45
2022/01/05 01:44:44;;;;;;;14.38;3.28;;;4.30;99.90;;;;;;5089308;28;20056;-47
2022/01/05 01:47:09;;;;;;;10.10;2.67;;;4.30;99.90;;;;;;5089144;28;20020;-45
2022/01/05 01:49:35;;;;;;;11.52;2.47;;;4.30;99.90;;;;;;5087446;28;20042;-47
2022/01/05 01:52:01;;;;;;;11.90;2.65;;;4.30;99.90;;;;;;5067598;28;20063;-45
2022/01/05 01:54:28;;;;;;;11.38;3.08;;;4.30;99.90;;;;;;5069000;28;20123;-48
2022/01/05 01:56:55;;;;;;;10.30;2.80;;;4.30;99.90;;;;;;5069003;28;20052;-46
2022/01/05 01:59:21;;;;;;;14.00;2.95;;;4.40;99.90;;;;;;5071522;28;20523;-48
2022/01/05 02:01:47;;;;;;;9.35;2.58;;;4.40;99.90;;;;;;5080525;28;20032;-46
2022/01/05 02:04:12;;;;;;;4.88;2.40;;;4.30;99.90;;;;;;5078370;28;20079;-45
2022/01/05 02:06:38;;;;;;;13.20;2.63;;;4.30;99.90;;;;;;5088921;28;20020;-48
2022/01/05 02:09:04;;;;;;;11.40;2.67;;;4.30;99.90;;;;;;5088166;28;20323;-47
2022/01/05 02:11:33;;;;;;;15.73;5.03;;;4.40;99.90;;;;;;5089048;28;20024;-45
2022/01/05 02:13:58;;;;;;;22.75;2.95;;;4.30;99.90;;;;;;5088828;28;20536;-45
2022/01/05 02:16:29;;;;;;;6.97;1.95;;;4.30;99.90;;;;;;5089075;28;20032;-46
2022/01/05 02:18:58;;;;;;;12.75;2.50;;;4.30;99.90;;;;;;5087717;28;20023;-48
2022/01/05 02:21:25;;;;;;;6.82;2.90;;;4.30;99.90;;;;;;5076959;28;20016;-48
2022/01/05 02:23:50;;;;;;;8.82;2.78;;;4.30;99.90;;;;;;5084830;28;20053;-47
2022/01/05 02:26:16;;;;;;;9.23;2.63;;;4.30;99.90;;;;;;5088195;28;20028;-46
2022/01/05 02:28:43;;;;;;;12.38;2.67;;;4.30;99.90;;;;;;5086214;28;20032;-46
2022/01/05 02:31:09;;;;;;;22.30;3.28;;;4.30;99.90;;;;;;5087400;28;20081;-47
2022/01/05 02:33:34;;;;;;;14.75;2.70;;;4.20;99.90;;;;;;5088228;28;20028;-48
2022/01/05 02:36:00;;;;;;;16.05;3.08;;;4.30;99.90;;;;;;5081660;28;20025;-48
2022/01/05 02:38:27;;;;;;;13.63;2.83;;;4.30;99.90;;;;;;5079403;28;20024;-46
2022/01/05 02:40:52;;;;;;;12.93;2.78;;;4.30;99.90;;;;;;5088205;28;20020;-48
2022/01/05 02:43:18;;;;;;;7.63;2.45;;;4.20;99.90;;;;;;5088590;28;20043;-45
2022/01/05 02:45:44;;;;;;;13.25;3.15;;;4.20;99.90;;;;;;5087096;28;20028;-47
2022/01/05 02:48:09;;;;;;;14.93;2.67;;;4.20;99.90;;;;;;5087574;28;20059;-46
2022/01/05 02:50:35;;;;;;;12.32;2.40;;;4.20;99.90;;;;;;5088289;28;20030;-48
2022/01/05 02:53:01;;;;;;;7.40;2.67;;;4.20;99.90;;;;;;5088287;28;20389;-45
2022/01/05 02:55:26;;;;;;;10.82;2.30;;;4.20;99.90;;;;;;5088122;28;20031;-46
2022/01/05 02:57:52;;;;;;;9.23;3.10;;;4.20;99.90;;;;;;5087733;28;20020;-46
2022/01/05 03:00:17;;;;;;;13.18;2.95;;;4.30;99.90;;;;;;5088065;28;20046;-45
2022/01/05 03:02:46;;;;;;;13.13;3.00;;;4.20;99.90;;;;;;5079278;28;20573;-46
2022/01/05 03:05:12;;;;;;;11.00;3.10;;;4.20;99.90;;;;;;5078388;28;20048;-45
2022/01/05 03:07:41;;;;;;;11.85;2.67;;;4.20;99.90;;;;;;5087672;28;20482;-44
2022/01/05 03:10:08;;;;;;;15.32;3.50;;;4.20;99.90;;;;;;5079661;28;20024;-46
2022/01/05 03:12:34;;;;;;;14.32;3.05;;;4.20;99.90;;;;;;5081581;28;20028;-46
2022/01/05 03:14:59;;;;;;;15.02;2.83;;;4.20;99.90;;;;;;5088213;28;20066;-45
2022/01/05 03:17:25;;;;;;;12.45;2.58;;;4.20;99.90;;;;;;5087150;28;20020;-46
2022/01/05 03:19:50;;;;;;;8.95;2.40;;;4.10;99.90;;;;;;5088148;28;20031;-47
2022/01/05 03:22:16;;;;;;;12.57;2.95;;;4.10;99.90;;;;;;5086989;28;20028;-47
2022/01/05 03:24:41;;;;;;;12.18;3.15;;;4.10;99.90;;;;;;5088281;28;20025;-49
2022/01/05 03:27:07;;;;;;;11.95;3.15;;;4.20;99.90;;;;;;5088185;28;20028;-47
2022/01/05 03:29:32;;;;;;;13.93;3.85;;;4.10;99.90;;;;;;5087848;28;20382;-47
2022/01/05 03:31:58;;;;;;;13.23;3.17;;;4.10;99.90;;;;;;5088140;28;20528;-45
2022/01/05 03:34:23;;;;;;;10.98;2.50;;;4.10;99.90;;;;;;5087762;28;20107;-46
2022/01/05 03:36:49;;;;;;;9.07;2.50;;;4.10;99.90;;;;;;5088206;28;20024;-45
2022/01/05 03:39:15;;;;;;;12.23;2.85;;;4.00;99.90;;;;;;5084086;28;20032;-45
2022/01/05 03:41:41;;;;;;;19.27;3.33;;;4.00;99.90;;;;;;5083453;28;20016;-46
2022/01/05 03:44:06;;;;;;;12.15;2.33;;;4.00;99.90;;;;;;5091564;28;20028;-48
2022/01/05 03:46:32;;;;;;;7.78;2.42;;;4.00;99.90;;;;;;5090056;28;20031;-47
2022/01/05 03:48:57;;;;;;;26.83;5.38;;;4.00;99.90;;;;;;5090439;28;20128;-46
2022/01/05 03:51:24;;;;;;;9.57;2.75;;;4.00;99.90;;;;;;5091471;28;20032;-45
2022/01/05 03:53:50;;;;;;;12.63;2.10;;;4.00;99.90;;;;;;5091411;28;20016;-46
2022/01/05 03:56:15;;;;;;;14.55;2.95;;;4.00;99.90;;;;;;5091290;28;20182;-46
2022/01/05 03:58:40;;;;;;;15.40;2.70;;;4.00;99.90;;;;;;5090569;28;20028;-45
2022/01/05 04:01:06;;;;;;;11.20;2.70;;;4.00;99.90;;;;;;5089817;28;20568;-47
2022/01/05 04:03:31;;;;;;;15.90;2.90;;;4.00;99.90;;;;;;5082397;28;20028;-44
2022/01/05 04:05:57;;;;;;;19.67;2.80;;;4.00;99.90;;;;;;5082534;28;20114;-45
2022/01/05 04:08:22;;;;;;;9.20;2.70;;;4.00;99.90;;;;;;5090549;28;20427;-45
2022/01/05 04:10:48;;;;;;;6.68;2.65;;;4.00;99.90;;;;;;5090943;28;20056;-48
2022/01/05 04:13:15;;;;;;;12.38;2.60;;;4.00;99.90;;;;;;5090738;28;20030;-46
2022/01/05 04:15:41;;;;;;;18.08;3.10;;;3.90;99.90;;;;;;5091241;28;20021;-45
2022/01/05 04:18:06;;;;;;;13.88;3.50;;;3.90;99.90;;;;;;5089790;28;20028;-45
2022/01/05 04:20:33;;;;;;;11.52;2.58;;;4.00;99.90;;;;;;5091003;28;20063;-46
2022/01/05 04:22:58;;;;;;;20.30;2.92;;;4.00;99.90;;;;;;5078296;28;20029;-45
2022/01/05 04:25:24;;;;;;;15.07;2.78;;;4.00;99.90;;;;;;5090459;28;20040;-45
2022/01/05 04:27:50;;;;;;;19.63;3.17;;;4.00;99.90;;;;;;5081678;28;20016;-45
2022/01/05 04:30:15;;;;;;;11.95;3.90;;;4.00;99.90;;;;;;5082478;28;20473;-44
2022/01/05 04:32:41;;;;;;;12.88;2.88;;;4.00;99.90;;;;;;5090291;28;20036;-45
2022/01/05 04:35:07;;;;;;;15.48;3.05;;;4.00;99.90;;;;;;5083595;28;20522;-46
2022/01/05 04:37:32;;;;;;;24.85;3.28;;;4.00;99.90;;;;;;5083206;28;20504;-45
2022/01/05 04:40:02;;;;;;;16.33;2.67;;;4.00;99.90;;;;;;5090694;28;20317;-46
2022/01/05 04:42:27;;;;;;;11.40;2.47;;;4.00;99.90;;;;;;5090293;28;20032;-45
2022/01/05 04:44:54;;;;;;;14.68;2.70;;;4.00;99.90;;;;;;5090289;28;20342;-47
2022/01/05 04:47:19;;;;;;;15.15;3.85;;;4.00;99.90;;;;;;5089303;28;20128;-46
2022/01/05 04:49:45;;;;;;;19.90;3.65;;;4.00;99.90;;;;;;5089499;28;20496;-47
2022/01/05 04:52:10;;;;;;;19.15;3.78;;;3.90;99.90;;;;;;5090154;28;20363;-46
2022/01/05 04:54:36;;;;;;;17.77;3.38;;;4.00;99.90;;;;;;5090227;28;20074;-46
2022/01/05 04:57:01;;;;;;;19.67;3.55;;;4.00;99.90;;;;;;5090074;28;20035;-47
2022/01/05 04:59:27;;;;;;;15.45;2.50;;;3.90;99.90;;;;;;5089546;28;20028;-46
2022/01/05 05:01:52;;;;;;;16.60;3.08;;;3.90;99.90;;;;;;5067069;28;20102;-47
2022/01/05 05:04:18;;;;;;;12.55;2.80;;;3.90;99.90;;;;;;5075478;28;20656;-49
2022/01/05 05:06:43;;;;;;;23.08;3.58;;;3.90;99.90;;;;;;5084754;28;20099;-47
2022/01/05 05:09:09;;;;;;;17.85;3.05;;;3.90;99.90;;;;;;5089128;28;20020;-47
2022/01/05 05:11:34;;;;;;;12.45;3.33;;;3.90;99.90;;;;;;5089831;28;20154;-47
2022/01/05 05:14:00;;;;;;;12.85;2.30;;;4.00;99.90;;;;;;5089718;28;20020;-46
2022/01/05 05:16:25;;;;;;;8.43;2.20;;;3.90;99.90;;;;;;5089651;28;20171;-46
2022/01/05 05:18:51;;;;;;;10.98;2.30;;;3.90;99.90;;;;;;5081866;28;20028;-47
2022/01/05 05:21:16;;;;;;;8.23;2.50;;;3.90;99.90;;;;;;5080538;28;20020;-46
2022/01/05 05:23:42;;;;;;;17.35;2.58;;;3.90;99.90;;;;;;5072677;28;20029;-46
2022/01/05 05:26:07;;;;;;;17.63;3.22;;;3.90;99.90;;;;;;5075738;28;20028;-45
2022/01/05 05:28:33;;;;;;;19.23;2.75;;;3.80;99.90;;;;;;5088780;28;20107;-47
2022/01/05 05:30:59;;;;;;;11.98;2.92;;;3.80;99.90;;;;;;5089377;28;20565;-46
2022/01/05 05:33:24;;;;;;;11.85;2.33;;;3.70;99.90;;;;;;5089356;28;20089;-47
2022/01/05 05:35:50;;;;;;;15.07;3.67;;;3.70;99.90;;;;;;5089024;28;20027;-46
2022/01/05 05:38:15;;;;;;;14.95;2.72;;;3.70;99.90;;;;;;5088513;28;20036;-45
2022/01/05 05:40:42;;;;;;;15.30;2.60;;;3.70;99.90;;;;;;5089538;28;20347;-45
2022/01/05 05:43:07;;;;;;;14.57;2.28;;;3.70;99.90;;;;;;5089350;28;20099;-45
2022/01/05 05:45:33;;;;;;;14.93;3.55;;;3.70;99.90;;;;;;5088280;28;20454;-46
2022/01/05 05:47:58;;;;;;;14.32;3.42;;;3.70;99.90;;;;;;5079935;28;20043;-47
2022/01/05 05:50:24;;;;;;;21.63;4.28;;;3.60;99.90;;;;;;5081255;28;20031;-47
2022/01/05 05:52:50;;;;;;;8.05;2.13;;;3.50;99.90;;;;;;5085802;28;20669;-47
2022/01/05 05:55:15;;;;;;;7.40;2.58;;;3.60;99.90;;;;;;5070048;28;20516;-47
2022/01/05 05:57:42;;;;;;;8.77;2.65;;;3.50;99.90;;;;;;5080375;28;20028;-48
2022/01/05 06:00:08;;;;;;;11.25;2.47;;;3.50;99.90;;;;;;5088747;28;20032;-47
2022/01/05 06:02:33;;;;;;;9.45;3.72;;;3.50;99.90;;;;;;5068140;28;20835;-47
2022/01/05 06:04:59;;;;;;;16.00;3.15;;;3.50;99.90;;;;;;5077439;28;20035;-48
2022/01/05 06:07:24;;;;;;;14.02;2.63;;;3.50;99.90;;;;;;5078815;28;20033;-48
2022/01/05 06:09:50;;;;;;;11.30;2.20;;;3.50;99.90;;;;;;5063578;28;20021;-45
2022/01/05 06:12:15;;;;;;;10.82;2.90;;;3.50;99.90;;;;;;5063664;28;20515;-46
2022/01/05 06:14:42;;;;;;;13.90;2.97;;;3.50;99.90;;;;;;5067186;28;20048;-48
2022/01/05 06:17:07;;;;;;;12.02;2.67;;;3.50;99.90;;;;;;5068116;28;20040;-45
2022/01/05 06:19:33;;;;;;;20.98;2.90;;;3.40;99.90;;;;;;5066761;28;20021;-47
2022/01/05 06:21:58;;;;;;;11.13;2.08;;;3.50;99.90;;;;;;5077287;28;20029;-47
2022/01/05 06:24:24;;;;;;;19.67;2.63;;;3.40;99.90;;;;;;5088764;28;20062;-46
2022/01/05 06:26:52;;;;;;;18.02;3.17;;;3.40;99.90;;;;;;5088761;28;20501;-49
2022/01/05 06:29:18;;;;;;;13.73;2.70;;;3.30;99.90;;;;;;5071411;28;20670;-47
2022/01/05 06:31:44;;;;;;;15.18;2.60;;;3.30;99.90;;;;;;5050061;28;20071;-47
2022/01/05 06:34:09;;;;;;;9.15;2.92;;;3.30;99.90;;;;;;5070244;28;20113;-48
2022/01/05 06:36:35;;;;;;;11.25;2.95;;;3.20;99.90;;;;;;5064599;28;20412;-46
2022/01/05 06:39:01;;;;;;;6.53;2.10;;;3.20;99.90;;;;;;5057299;28;20032;-48
2022/01/05 06:41:27;;;;;;;15.18;2.28;;;3.20;99.90;;;;;;5066454;28;20020;-49
2022/01/05 06:43:52;;;;;;;12.82;2.05;;;3.20;99.90;;;;;;5069278;28;20505;-49
2022/01/05 06:46:18;;;;;;;17.05;4.03;;;3.10;99.90;;;;;;5060587;28;20117;-50
2022/01/05 06:48:43;;;;;;;9.43;3.08;;;3.10;99.90;;;;;;5055599;28;20044;-48
2022/01/05 06:51:09;;;;;;;19.88;3.55;;;3.10;99.90;;;;;;5060500;28;20059;-50
2022/01/05 06:53:35;;;;;;;14.38;3.15;;;3.00;99.90;;;;;;5068394;28;20044;-48
2022/01/05 06:56:00;;;;;;;10.75;2.30;;;3.10;99.90;;;;;;5056422;28;20039;-50
2022/01/05 06:58:25;;;;;;;13.15;3.08;;;3.10;99.90;;;;;;5060744;28;20562;-47
2022/01/05 07:00:51;;;;;;;11.55;2.38;;;3.10;99.90;;;;;;5065005;28;20111;-47
2022/01/05 07:03:16;;;;;;;13.52;3.50;;;3.20;99.90;;;;;;5057016;28;20016;-47
2022/01/05 07:05:42;;;;;;;9.68;2.88;;;3.10;99.90;;;;;;5066827;28;20418;-48
2022/01/05 07:08:07;;;;;;;8.05;2.28;;;3.10;99.90;;;;;;5065404;28;20696;-50
2022/01/05 07:10:34;;;;;;;17.92;3.10;;;3.10;99.90;;;;;;5062560;28;20032;-49
2022/01/05 07:13:00;;;;;;;11.18;2.20;;;3.00;99.90;;;;;;5069487;28;20029;-48
2022/01/05 07:15:25;;;;;;;11.43;2.97;;;3.00;99.90;;;;;;5072157;28;20028;-47
2022/01/05 07:17:51;;;;;;;11.95;3.30;;;3.00;99.90;;;;;;5065568;28;20027;-47
2022/01/05 07:20:17;;;;;;;11.15;2.05;;;3.00;99.90;;;;;;5057521;28;20020;-49
2022/01/05 07:22:43;;;;;;;22.50;4.28;;;3.00;99.90;;;;;;5076276;28;20029;-46
2022/01/05 07:25:09;;;;;;;17.20;3.80;;;3.00;99.90;;;;;;5081770;28;20551;-46
2022/01/05 07:27:35;;;;;;;16.23;3.15;;;3.00;99.90;;;;;;5080972;28;20036;-46
2022/01/05 07:30:01;;;;;;;15.38;2.92;;;2.90;99.90;;;;;;5070614;28;20082;-48
2022/01/05 07:32:28;;;;;;;8.77;2.45;;;3.00;99.90;;;;;;5082849;28;20370;-46
2022/01/05 07:34:54;;;;;;;18.10;4.18;;;3.00;99.90;;;;;;5090220;28;20052;-48
2022/01/05 07:37:19;;;;;;;21.30;3.03;;;2.90;99.90;;;;;;5051480;28;20526;-47
2022/01/05 07:39:45;;;;;;;12.07;3.00;;;3.00;99.90;;;;;;5050675;28;20028;-47
2022/01/05 07:42:11;;;;;;;14.00;3.13;;;3.00;99.90;;;;;;5050756;28;20032;-46
2022/01/05 07:44:37;;;;;;;15.15;3.40;;;3.00;99.90;;;;;;5058040;28;20608;-49
2022/01/05 07:47:02;;;;;;;21.50;3.70;;;3.00;99.90;;;;;;5055510;28;20123;-47
2022/01/05 07:49:28;;;;;;;15.15;3.17;;;3.00;99.90;;;;;;5054010;28;20066;-46
2022/01/05 07:51:53;;;;;;;21.52;3.70;;;3.00;99.90;;;;;;5050579;28;20044;-47
2022/01/05 07:54:19;;;;;;;13.75;3.30;;;3.00;99.90;;;;;;5050938;28;20112;-47
2022/01/05 07:56:44;;;;;;;18.27;3.55;;;3.00;99.90;;;;;;5077046;28;20031;-47
2022/01/05 07:59:10;;;;;;;14.57;3.40;;;3.10;99.90;;;;;;5078945;28;20033;-47
2022/01/05 08:01:35;;;;;;;22.25;3.70;;;3.10;99.90;;;;;;5074852;28;20016;-47
2022/01/05 08:04:01;;;;;;;11.18;2.88;;;3.20;99.90;;;;;;5062167;28;20537;-46
2022/01/05 08:06:26;;;;;;;19.38;4.00;;;3.20;99.90;;;;;;5058631;28;20156;-48
2022/01/05 08:08:52;;;;;;;20.80;2.88;;;3.10;99.90;;;;;;5070041;28;20036;-47
2022/01/05 08:11:18;;;;;;;20.20;5.00;;;3.20;99.90;;;;;;5072835;28;20385;-46
2022/01/05 08:13:44;;;;;;;14.90;5.25;;;3.20;99.90;;;;;;5070504;28;20111;-47
2022/01/05 08:16:10;;;;;;;14.65;4.03;;;3.20;99.90;;;;;;5065046;28;20017;-46
2022/01/05 08:18:35;;;;;;;15.93;3.80;;;3.20;99.90;;;;;;5073505;28;20501;-49
2022/01/05 08:21:01;;;;;;;16.17;3.95;;;3.20;99.90;;;;;;5087602;28;20031;-47
2022/01/05 08:23:27;;;;;;;16.00;4.32;;;3.20;99.90;;;;;;5090983;28;20036;-46
2022/01/05 08:25:53;;;;;;;13.88;5.28;;;3.20;99.90;;;;;;5077262;28;20032;-46
2022/01/05 08:28:19;;;;;;;12.60;4.40;;;3.30;99.90;;;;;;5077733;28;20678;-46
2022/01/05 08:30:45;;;;;;;15.65;3.75;;;3.30;99.90;;;;;;5070405;28;20091;-50
2022/01/05 08:33:15;;;;;;;18.60;4.95;;;3.40;99.90;;;;;;5050431;28;20028;-50
2022/01/05 08:35:41;;;;;;;15.43;3.90;;;3.40;99.90;;;;;;5056227;28;20020;-46
2022/01/05 08:38:07;;;;;;;13.90;4.18;;;3.40;99.90;;;;;;5066536;28;20361;-47
2022/01/05 08:40:34;;;;;;;15.38;4.07;;;3.40;99.90;;;;;;5051400;28;20021;-47
2022/01/05 08:43:01;;;;;;;23.38;4.50;;;3.40;99.90;;;;;;5048867;28;20067;-46
2022/01/05 08:45:27;;;;;;;22.98;4.32;;;3.50;99.90;;;;;;5055914;28;20025;-49
2022/01/05 08:47:55;;;;;;;13.80;3.45;;;3.60;99.90;;;;;;5068339;28;20044;-46
2022/01/05 08:50:23;;;;;;;13.75;4.20;;;3.60;99.90;;;;;;5051819;28;20043;-49
2022/01/05 08:52:50;;;;;;;13.15;4.07;;;3.60;99.90;;;;;;5053245;28;20498;-48
2022/01/05 08:55:18;;;;;;;24.15;5.05;;;3.50;99.90;;;;;;5062879;28;20029;-47
2022/01/05 08:57:44;;;;;;;11.65;3.92;;;3.50;99.90;;;;;;5069532;28;20456;-47
2022/01/05 09:00:10;;;;;;;14.65;4.80;;;3.60;99.90;;;;;;5080167;28;20027;-49
2022/01/05 09:02:36;;;;;;;16.92;4.43;;;3.60;99.90;;;;;;5089740;28;20028;-46
2022/01/05 09:05:03;;;;;;;16.42;4.20;;;3.60;99.90;;;;;;5078288;28;20029;-47
2022/01/05 09:07:28;;;;;;;24.00;4.90;;;3.70;99.90;;;;;;5069289;28;20033;-47
2022/01/05 09:09:54;;;;;;;21.63;4.75;;;3.60;99.90;;;;;;5062130;28;20040;-48
2022/01/05 09:12:19;;;;;;;13.98;3.72;;;3.70;99.90;;;;;;5069607;28;20064;-46
2022/01/05 09:14:45;;;;;;;12.20;3.85;;;3.80;99.90;;;;;;5066444;28;20409;-47
2022/01/05 09:17:11;;;;;;;19.33;5.05;;;3.70;99.90;;;;;;5062268;28;20024;-46
2022/01/05 09:19:36;;;;;;;19.08;4.50;;;3.80;99.90;;;;;;5076908;28;20021;-47
2022/01/05 09:22:03;;;;;;;21.08;5.15;;;3.80;99.90;;;;;;5065568;28;20122;-48
2022/01/05 09:24:29;;;;;;;15.02;4.93;;;3.80;99.90;;;;;;5068972;28;20032;-48
2022/01/05 09:27:02;;;;;;;15.43;4.50;;;3.90;99.90;;;;;;5068269;28;20024;-47
2022/01/05 09:29:29;;;;;;;14.95;4.82;;;4.00;99.90;;;;;;5072900;28;20044;-49
2022/01/05 09:31:54;;;;;;;13.82;4.82;;;3.90;99.90;;;;;;5049089;28;20028;-47
2022/01/05 09:34:20;;;;;;;16.33;5.22;;;4.00;99.90;;;;;;5048719;28;20025;-50
2022/01/05 09:36:49;;;;;;;19.58;6.20;;;4.10;99.90;;;;;;5064402;28;20122;-47
2022/01/05 09:42:00;;;;;;;29.77;6.80;;;4.10;99.90;;;;;;5060210;28;20036;-48
2022/01/05 09:44:32;;;;;;;20.45;6.25;;;4.20;99.90;;;;;;5066425;28;20147;-48
2022/01/05 09:47:31;;;;;;;20.77;6.70;;;4.30;99.90;;;;;;5048732;28;20032;-49
2022/01/05 09:50:07;;;;;;;14.50;5.35;;;4.30;99.90;;;;;;5079574;28;20647;-48
2022/01/05 09:52:34;;;;;;;15.82;5.72;;;4.60;99.90;;;;;;5080065;28;20056;-47
2022/01/05 09:55:01;;;;;;;14.77;5.07;;;4.60;99.90;;;;;;5060294;28;20100;-48
2022/01/05 09:57:28;;;;;;;21.63;6.40;;;4.70;99.90;;;;;;5059860;28;20512;-47
2022/01/05 09:59:55;;;;;;;15.57;6.07;;;4.70;99.90;;;;;;5054037;28;20029;-49
2022/01/05 10:02:21;;;;;;;12.77;5.78;;;4.60;99.90;;;;;;5048550;28;20021;-46
2022/01/05 10:04:46;;;;;;;12.55;5.25;;;4.70;99.90;;;;;;5068071;28;20029;-47
2022/01/05 10:07:13;;;;;;;24.73;6.88;;;4.70;99.90;;;;;;5056378;28;20325;-48
2022/01/05 10:09:41;;;;;;;19.33;7.30;;;4.80;99.90;;;;;;5059561;28;20336;-50
2022/01/05 10:12:08;;;;;;;19.27;5.13;;;4.90;99.90;;;;;;5075443;28;20028;-48
2022/01/05 10:14:37;;;;;;;14.35;5.22;;;5.00;99.90;;;;;;5088369;28;20020;-46
2022/01/05 10:17:10;;;;;;;12.00;4.80;;;5.00;99.90;;;;;;5068756;28;20391;-49
2022/01/05 10:19:37;;;;;;;12.90;5.13;;;5.00;99.90;;;;;;5071738;28;20078;-48
2022/01/05 10:22:04;;;;;;;16.05;5.07;;;5.10;99.90;;;;;;5070513;28;20317;-48
2022/01/05 10:24:46;;;;;;;11.05;5.00;;;5.30;99.90;;;;;;5065693;28;20195;-49
2022/01/05 10:27:17;;;;;;;17.10;4.93;;;5.40;99.90;;;;;;5062218;28;20083;-48
2022/01/05 10:29:58;;;;;;;22.55;5.60;;;5.50;99.90;;;;;;5064029;28;20017;-47
2022/01/05 10:32:25;;;;;;;15.02;4.65;;;5.40;99.90;;;;;;5074996;28;20112;-47
2022/01/05 10:35:09;;;;;;;19.58;5.55;;;5.40;99.90;;;;;;5062405;28;20079;-48
2022/01/05 10:37:38;;;;;;;22.17;5.05;;;5.20;99.90;;;;;;5052450;28;20032;-48
2022/01/05 10:40:19;;;;;;;12.45;5.18;;;5.20;99.90;;;;;;5067392;28;20025;-47
2022/01/05 10:42:50;;;;;;;13.68;4.25;;;5.30;99.90;;;;;;5069537;28;20074;-50
2022/01/05 10:45:18;;;;;;;18.88;6.53;;;5.30;99.90;;;;;;5068021;28;20029;-49
2022/01/05 10:48:02;;;;;;;14.65;4.82;;;5.10;99.90;;;;;;5052681;28;20041;-49
2022/01/05 10:50:27;;;;;;;17.10;5.97;;;4.70;99.90;;;;;;5053303;28;20542;-50
2022/01/05 10:52:57;;;;;;;13.40;4.88;;;4.50;99.90;;;;;;5059024;28;20070;-46
2022/01/05 10:55:26;;;;;;;17.30;5.60;;;4.50;99.90;;;;;;5062347;28;20020;-46
2022/01/05 10:58:02;;;;;;;14.63;5.93;;;4.50;99.90;;;;;;5060084;28;20029;-48
2022/01/05 11:00:44;;;;;;;16.95;5.50;;;4.50;99.90;;;;;;5064229;28;20028;-47
2022/01/05 11:03:30;;;;;;;15.85;5.63;;;4.50;99.90;;;;;;5065870;28;20037;-47
2022/01/05 11:06:18;;;;;;;12.10;5.28;;;4.50;99.90;;;;;;5066155;28;20029;-47
2022/01/05 11:08:55;;;;;;;16.77;5.60;;;4.50;99.90;;;;;;5059362;28;20056;-48
2022/01/05 11:11:37;;;;;;;16.88;5.97;;;4.40;99.90;;;;;;5063811;28;20086;-46
2022/01/05 11:14:13;;;;;;;10.65;5.25;;;4.40;99.90;;;;;;5061627;28;20029;-48
2022/01/05 11:16:53;;;;;;;18.38;6.03;;;4.50;99.90;;;;;;5060582;28;20538;-48
2022/01/05 11:19:20;;;;;;;13.15;5.18;;;4.40;99.90;;;;;;5055597;28;20036;-47
2022/01/05 11:22:06;;;;;;;14.30;4.47;;;4.50;99.90;;;;;;5079322;28;20024;-46
2022/01/05 11:24:39;;;;;;;14.07;4.90;;;4.50;99.90;;;;;;5056778;28;20071;-47
2022/01/05 11:27:09;;;;;;;16.30;5.65;;;4.50;99.90;;;;;;5059655;28;20035;-48
2022/01/05 11:29:36;;;;;;;11.73;5.40;;;4.50;99.90;;;;;;5062848;28;20017;-48
2022/01/05 11:32:04;;;;;;;11.45;5.50;;;4.40;99.90;;;;;;5062982;28;20251;-48
2022/01/05 11:34:30;;;;;;;9.90;4.65;;;4.30;99.90;;;;;;5071270;28;20071;-48
2022/01/05 11:36:57;;;;;;;7.72;4.75;;;4.30;99.90;;;;;;5069742;28;20052;-47
2022/01/05 11:39:23;;;;;;;14.95;5.78;;;4.20;99.90;;;;;;5054607;28;20036;-46
2022/01/05 11:41:50;;;;;;;7.35;4.30;;;4.00;99.90;;;;;;5051456;28;20378;-48
2022/01/05 11:44:17;;;;;;;12.35;4.68;;;4.00;99.90;;;;;;5058396;28;20114;-46
2022/01/05 11:46:45;;;;;;;11.05;4.20;;;4.10;99.90;;;;;;5060378;28;20720;-47
2022/01/05 11:49:13;;;;;;;7.78;5.05;;;4.10;99.90;;;;;;5063198;28;20072;-46
2022/01/05 11:51:41;;;;;;;12.45;4.25;;;4.20;99.90;;;;;;5058786;28;20478;-49
2022/01/05 11:54:25;;;;;;;7.07;4.28;;;4.10;99.90;;;;;;5059309;28;20029;-46
2022/01/05 11:57:11;;;;;;;6.25;3.63;;;4.10;99.90;;;;;;5064454;28;20028;-46
2022/01/05 11:59:40;;;;;;;6.35;3.88;;;4.00;99.90;;;;;;5063294;28;20017;-46
2022/01/05 12:02:17;;;;;;;9.20;4.50;;;3.90;99.90;;;;;;5060526;28;20027;-48
2022/01/05 12:04:52;;;;;;;9.60;4.78;;;3.90;99.90;;;;;;5063270;28;20013;-48
2022/01/05 12:07:36;;;;;;;5.80;4.00;;;3.80;99.90;;;;;;5071010;28;20032;-49
2022/01/05 12:10:18;;;;;;;11.13;4.22;;;3.80;99.90;;;;;;5060336;28;20558;-49
2022/01/05 12:13:10;;;;;;;9.05;4.47;;;3.80;99.90;;;;;;5061165;28;20067;-49
2022/01/05 12:15:38;;;;;;;5.13;4.13;;;3.70;99.90;;;;;;5058433;28;20029;-46
2022/01/05 12:18:05;;;;;;;9.05;4.35;;;3.70;99.90;;;;;;5062095;28;20690;-49
2022/01/05 12:20:35;;;;;;;6.68;4.10;;;3.70;99.90;;;;;;5074864;28;20016;-48
2022/01/05 12:23:24;;;;;;;9.05;4.32;;;3.70;99.90;;;;;;5063481;28;20084;-47
2022/01/05 12:26:05;;;;;;;5.63;4.18;;;3.60;99.90;;;;;;5059661;28;20181;-46
2022/01/05 12:28:50;;;;;;;5.90;4.35;;;3.50;99.90;;;;;;5061981;28;20235;-46
2022/01/05 12:31:16;;;;;;;5.40;3.85;;;3.50;99.90;;;;;;5063888;28;20024;-46
2022/01/05 12:33:48;;;;;;;5.03;3.60;;;3.40;99.90;;;;;;5061794;28;20505;-46
2022/01/05 12:36:37;;;;;;;4.35;3.47;;;3.20;99.90;;;;;;5060344;28;20040;-47
2022/01/05 12:39:04;;;;;;;5.20;4.22;;;3.10;99.90;;;;;;5058193;28;20021;-47
2022/01/05 12:41:44;;;;;;;6.05;4.45;;;3.00;99.90;;;;;;5059670;28;20534;-46
2022/01/05 12:44:13;;;;;;;6.53;4.57;;;2.90;99.90;;;;;;5060344;28;20119;-48
2022/01/05 12:46:48;;;;;;;7.05;4.53;;;2.90;99.90;;;;;;5060316;28;20421;-47
2022/01/05 12:49:19;;;;;;;5.78;4.40;;;2.90;99.90;;;;;;5063350;28;20497;-48
2022/01/05 12:51:53;;;;;;;9.18;5.32;;;3.00;99.90;;;;;;5069345;28;20043;-46